createdAt,value
2017-12-10T00:00:04.785Z,59.50
2017-12-10T00:05:07.462Z,59.50
2017-12-10T00:10:10.042Z,59.50
2017-12-10T00:15:12.643Z,59.40
2017-12-10T00:20:15.279Z,59.40
2017-12-10T00:25:18.744Z,59.40
2017-12-10T00:30:21.403Z,59.30
2017-12-10T00:35:24.808Z,59.40
2017-12-10T00:40:28.293Z,59.40
2017-12-10T00:45:31.109Z,59.40
2017-12-10T00:50:33.983Z,59.40
2017-12-10T00:55:36.617Z,59.30
2017-12-10T01:00:39.299Z,59.30
2017-12-10T01:05:41.897Z,59.30
2017-12-10T01:10:44.835Z,59.30
2017-12-10T01:15:47.662Z,59.30
2017-12-10T01:20:50.240Z,59.30
2017-12-10T01:25:53.663Z,59.30
2017-12-10T01:30:56.267Z,59.30
2017-12-10T01:35:58.852Z,59.30
2017-12-10T01:41:02.221Z,59.30
2017-12-10T01:46:04.816Z,59.30
2017-12-10T01:51:07.417Z,59.40
2017-12-10T01:56:09.984Z,59.40
2017-12-10T02:01:13.343Z,59.50
2017-12-10T02:06:15.993Z,59.70
2017-12-10T02:11:18.561Z,59.80
2017-12-10T02:16:21.143Z,59.80
2017-12-10T02:21:23.739Z,59.90
2017-12-10T02:26:26.310Z,59.90
2017-12-10T02:31:28.925Z,60.00
2017-12-10T02:36:31.520Z,59.90
2017-12-10T02:41:34.174Z,59.90
2017-12-10T02:46:36.851Z,59.90
2017-12-10T02:51:39.414Z,60.00
2017-12-10T02:56:41.980Z,60.10
2017-12-10T03:01:45.349Z,60.20
2017-12-10T03:06:47.956Z,60.20
2017-12-10T03:11:50.528Z,60.30
2017-12-10T03:16:53.095Z,60.20
2017-12-10T03:21:55.676Z,60.40
2017-12-10T03:26:58.878Z,60.50
2017-12-10T03:32:01.468Z,60.60
2017-12-10T03:37:04.130Z,60.60
2017-12-10T03:42:06.751Z,60.80
2017-12-10T03:47:09.314Z,60.70
2017-12-10T03:52:11.907Z,60.80
2017-12-10T03:57:14.528Z,60.90
2017-12-10T04:02:17.178Z,60.90
2017-12-10T04:07:19.818Z,61.00
2017-12-10T04:12:23.232Z,61.10
2017-12-10T04:17:25.854Z,61.10
2017-12-10T04:22:29.288Z,61.20
2017-12-10T04:27:31.884Z,61.20
2017-12-10T04:32:34.531Z,61.20
2017-12-10T04:37:37.100Z,61.30
2017-12-10T04:42:39.821Z,61.30
2017-12-10T04:47:42.393Z,61.30
2017-12-10T04:52:45.079Z,61.40
2017-12-10T04:57:47.682Z,61.40
2017-12-10T05:02:50.307Z,61.50
2017-12-10T05:07:52.885Z,61.50
2017-12-10T05:12:55.474Z,61.40
2017-12-10T05:17:58.079Z,61.40
2017-12-10T05:23:00.727Z,61.50
2017-12-10T05:28:03.386Z,61.50
2017-12-10T05:33:06.228Z,61.60
2017-12-10T05:38:08.856Z,61.60
2017-12-10T05:43:11.466Z,61.70
2017-12-10T05:48:14.110Z,61.60
2017-12-10T05:53:16.767Z,61.60
2017-12-10T05:58:20.201Z,61.80
2017-12-10T06:03:23.690Z,61.70
2017-12-10T06:08:26.266Z,61.70
2017-12-10T06:13:28.862Z,61.90
2017-12-10T06:18:31.420Z,61.80
2017-12-10T06:23:33.993Z,61.90
2017-12-10T06:28:38.242Z,61.90
2017-12-10T06:33:41.516Z,61.90
2017-12-10T06:38:44.180Z,62.00
2017-12-10T06:43:46.743Z,62.00
2017-12-10T06:48:49.317Z,61.90
2017-12-10T06:53:52.019Z,62.00
2017-12-10T06:58:54.582Z,62.10
2017-12-10T07:03:57.794Z,62.00
2017-12-10T07:09:00.409Z,62.00
2017-12-10T07:14:02.977Z,62.10
2017-12-10T07:19:06.892Z,62.10
2017-12-10T07:24:09.529Z,62.10
2017-12-10T07:29:12.226Z,62.00
2017-12-10T07:34:15.011Z,62.10
2017-12-10T07:39:18.434Z,62.20
2017-12-10T07:44:21.078Z,62.20
2017-12-10T07:49:23.671Z,62.20
2017-12-10T07:54:26.777Z,62.30
2017-12-10T07:59:29.361Z,62.30
2017-12-10T08:04:32.712Z,62.20
2017-12-10T08:09:35.334Z,62.20
2017-12-10T08:14:37.961Z,62.20
2017-12-10T08:19:40.526Z,62.20
2017-12-10T08:24:43.429Z,62.00
2017-12-10T08:29:46.072Z,62.30
2017-12-10T08:34:50.768Z,62.20
2017-12-10T08:39:53.404Z,62.20
2017-12-10T08:44:55.985Z,62.20
2017-12-10T08:49:58.548Z,62.20
2017-12-10T08:55:01.142Z,62.20
2017-12-10T09:00:03.839Z,62.10
2017-12-10T09:05:06.433Z,62.10
2017-12-10T09:10:09.192Z,62.10
2017-12-10T09:15:12.033Z,62.10
2017-12-10T09:20:14.675Z,62.10
2017-12-10T09:25:17.429Z,62.10
2017-12-10T09:30:29.765Z,62.10
2017-12-10T09:35:32.401Z,62.00
2017-12-10T09:40:35.018Z,62.10
2017-12-10T09:45:37.784Z,62.20
2017-12-10T09:50:41.120Z,62.10
2017-12-10T09:55:43.723Z,62.10
2017-12-10T10:00:46.315Z,62.10
2017-12-10T10:05:49.106Z,62.20
2017-12-10T10:10:51.812Z,62.20
2017-12-10T10:15:54.450Z,61.80
2017-12-10T10:20:57.045Z,61.50
2017-12-10T10:25:59.634Z,61.50
2017-12-10T10:31:02.250Z,61.40
2017-12-10T10:36:04.840Z,61.30
2017-12-10T10:41:07.944Z,61.20
2017-12-10T10:46:10.581Z,61.00
2017-12-10T10:51:13.349Z,61.00
2017-12-10T10:56:16.182Z,60.90
2017-12-10T11:01:18.841Z,60.90
2017-12-10T11:06:22.198Z,60.80
2017-12-10T11:11:24.787Z,60.80
2017-12-10T11:16:27.437Z,60.80
2017-12-10T11:21:30.928Z,60.60
2017-12-10T11:26:34.183Z,60.50
2017-12-10T11:31:37.615Z,60.40
2017-12-10T11:36:40.312Z,60.40
2017-12-10T11:41:42.945Z,60.30
2017-12-10T11:46:45.509Z,60.30
2017-12-10T11:51:48.095Z,59.60
2017-12-10T11:56:50.677Z,58.80
2017-12-10T12:01:53.278Z,59.00
2017-12-10T12:06:55.904Z,59.10
2017-12-10T12:11:58.528Z,59.10
2017-12-10T12:17:01.887Z,58.90
2017-12-10T12:22:04.529Z,58.90
2017-12-10T12:27:07.131Z,58.80
2017-12-10T12:32:09.733Z,59.10
2017-12-10T12:37:12.376Z,59.00
2017-12-10T12:42:14.958Z,59.10
2017-12-10T12:47:17.551Z,59.00
2017-12-10T12:52:20.170Z,59.10
2017-12-10T12:57:22.786Z,59.00
2017-12-10T13:02:25.418Z,59.00
2017-12-10T13:07:28.029Z,59.00
2017-12-10T13:12:30.623Z,58.90
2017-12-10T13:17:34.500Z,58.50
2017-12-10T13:22:37.111Z,58.80
2017-12-10T13:27:39.699Z,58.90
2017-12-10T13:32:42.390Z,58.90
2017-12-10T13:37:45.020Z,58.80
2017-12-10T13:42:47.881Z,58.50
2017-12-10T13:47:50.505Z,58.40
2017-12-10T13:52:53.129Z,58.30
2017-12-10T13:57:55.750Z,58.30
2017-12-10T14:02:58.653Z,58.20
2017-12-10T14:08:01.392Z,58.30
2017-12-10T14:13:03.993Z,58.30
2017-12-10T14:18:06.557Z,58.30
2017-12-10T14:23:09.158Z,58.50
2017-12-10T14:28:11.769Z,58.80
2017-12-10T14:33:14.416Z,58.90
2017-12-10T14:38:16.994Z,59.10
2017-12-10T14:43:20.398Z,59.40
2017-12-10T14:48:24.091Z,59.40
2017-12-10T14:53:26.748Z,59.40
2017-12-10T14:58:29.381Z,59.60
2017-12-10T15:03:31.957Z,60.40
2017-12-10T15:08:34.520Z,60.80
2017-12-10T15:13:37.147Z,61.20
2017-12-10T15:18:39.985Z,61.70
2017-12-10T15:23:42.570Z,61.40
2017-12-10T15:28:45.142Z,61.50
2017-12-10T15:33:47.699Z,61.50
2017-12-10T15:38:50.326Z,61.60
2017-12-10T15:43:52.922Z,61.70
2017-12-10T15:48:56.131Z,61.80
2017-12-10T15:53:58.709Z,61.70
2017-12-10T15:59:01.302Z,61.70
2017-12-10T16:04:03.938Z,61.60
2017-12-10T16:09:06.610Z,61.50
2017-12-10T16:14:09.310Z,61.50
2017-12-10T16:19:12.256Z,61.50
2017-12-10T16:24:14.880Z,61.50
2017-12-10T16:29:17.506Z,61.30
2017-12-10T16:34:20.184Z,61.20
2017-12-10T16:39:22.787Z,61.10
2017-12-10T16:44:25.370Z,61.10
2017-12-10T16:49:27.965Z,61.10
2017-12-10T16:54:30.592Z,61.10
2017-12-10T16:59:33.211Z,61.80
2017-12-10T17:04:36.620Z,62.50
2017-12-10T17:09:40.048Z,62.80
2017-12-10T17:14:42.679Z,62.80
2017-12-10T17:19:45.306Z,63.10
2017-12-10T17:24:47.912Z,63.30
2017-12-10T17:29:50.559Z,63.40
2017-12-10T17:34:53.153Z,63.50
2017-12-10T17:39:56.567Z,63.80
2017-12-10T17:44:59.264Z,63.70
2017-12-10T17:50:01.955Z,63.90
2017-12-10T17:55:04.555Z,64.20
2017-12-10T18:00:07.161Z,63.30
2017-12-10T18:05:09.815Z,63.00
2017-12-10T18:10:12.525Z,63.30
2017-12-10T18:15:15.247Z,63.40
2017-12-10T18:20:18.110Z,63.40
2017-12-10T18:25:20.760Z,63.40
2017-12-10T18:30:23.418Z,63.40
2017-12-10T18:35:26.084Z,63.30
2017-12-10T18:40:28.679Z,62.70
2017-12-10T18:45:32.058Z,62.80
2017-12-10T18:50:38.686Z,62.80
2017-12-10T18:55:42.109Z,63.30
2017-12-10T19:00:45.505Z,62.80
2017-12-10T19:05:48.285Z,62.80
2017-12-10T19:10:51.159Z,63.00
2017-12-10T19:15:53.756Z,63.20
2017-12-10T19:20:56.320Z,63.00
2017-12-10T19:25:59.064Z,63.10
2017-12-10T19:31:01.717Z,63.10
2017-12-10T19:36:04.439Z,63.00
2017-12-10T19:41:07.960Z,62.60
2017-12-10T19:46:11.575Z,62.90
2017-12-10T19:51:14.325Z,62.90
2017-12-10T19:56:17.000Z,63.00
2017-12-10T20:01:19.655Z,62.60
2017-12-10T20:06:22.285Z,62.80
2017-12-10T20:11:24.928Z,62.90
2017-12-10T20:16:27.576Z,62.80
2017-12-10T20:21:30.175Z,62.20
2017-12-10T20:26:33.284Z,61.80
2017-12-10T20:31:36.116Z,61.50
2017-12-10T20:36:39.561Z,61.50
2017-12-10T20:41:43.038Z,61.30
2017-12-10T20:46:45.661Z,61.30
2017-12-10T20:51:48.210Z,61.60
2017-12-10T20:56:50.830Z,61.50
2017-12-10T21:01:53.461Z,62.50
2017-12-10T21:06:56.031Z,62.70
2017-12-10T21:11:58.810Z,62.80
2017-12-10T21:17:01.399Z,62.90
2017-12-10T21:22:04.021Z,62.80
2017-12-10T21:27:06.633Z,63.10
2017-12-10T21:32:09.218Z,62.90
2017-12-10T21:37:11.797Z,63.20
2017-12-10T21:42:14.413Z,63.20
2017-12-10T21:47:17.014Z,63.00
2017-12-10T21:52:19.622Z,63.10
2017-12-10T21:57:22.328Z,62.90
2017-12-10T22:02:24.912Z,63.00
2017-12-10T22:07:27.488Z,62.80
2017-12-10T22:12:30.148Z,62.90
2017-12-10T22:17:32.736Z,63.00
2017-12-10T22:22:35.344Z,62.90
2017-12-10T22:27:37.919Z,63.00
2017-12-10T22:32:40.562Z,63.10
2017-12-10T22:37:43.212Z,63.30
2017-12-10T22:42:45.859Z,63.30
2017-12-10T22:47:48.436Z,63.30
2017-12-10T22:52:51.175Z,63.20
2017-12-10T22:57:54.501Z,63.50
2017-12-10T23:02:57.095Z,63.40
2017-12-10T23:07:59.650Z,63.50
2017-12-10T23:13:02.831Z,63.60
2017-12-10T23:18:05.556Z,63.80
2017-12-10T23:23:08.138Z,63.80
2017-12-10T23:28:11.493Z,63.80
2017-12-10T23:33:14.129Z,63.80
2017-12-10T23:38:17.180Z,63.40
2017-12-10T23:43:20.578Z,63.40
2017-12-10T23:48:23.631Z,63.40
2017-12-10T23:53:26.349Z,63.40
2017-12-10T23:58:29.007Z,63.40
